EDT,Max TemperatureF,Mean TemperatureF,Min TemperatureF,Max Dew PointF,MeanDew PointF,Min DewpointF,Max Humidity, Mean Humidity, Min Humidity, Max Sea Level PressureIn, Mean Sea Level PressureIn, Min Sea Level PressureIn, Max VisibilityMiles, Mean VisibilityMiles, Min VisibilityMiles, Max Wind SpeedMPH, Mean Wind SpeedMPH, Max Gust SpeedMPH,PrecipitationIn, CloudCover, Events, WindDirDegrees
2013-9-1,,,,,,,,,,,,,,,,,,,,,,
2013-9-2,,,,,,,,,,,,,,,,,,,,,,
2013-9-3,73,64,55,52,50,48,88,56,44,30.09,30.08,30.06,10,10,10,12,5,17,0.00,3,,356
2013-9-4,80,68,57,55,52,48,94,53,32,30.18,30.17,30.14,10,10,10,12,5,,0.00,0,,294
2013-9-5,80,72,64,59,58,55,83,57,45,30.23,30.22,30.20,10,10,10,8,6,,0.00,0,,360
2013-9-6,82,68,53,63,47,43,83,45,25,30.26,30.23,30.17,10,10,10,12,8,,0.00,0,,130
2013-9-7,86,76,66,61,58,54,64,50,37,30.09,30.05,30.00,10,10,10,12,8,17,0.00,2,,241
2013-9-8,86,80,73,64,62,59,73,52,40,30.02,30.01,29.99,10,10,10,12,8,,0.00,2,,22
2013-9-9,91,78,66,66,65,63,100,61,38,30.04,30.02,29.97,10,9,4,12,7,17,0.00,2,,181
2013-9-10,95,85,75,72,65,57,89,52,28,30.13,30.11,30.08,10,9,5,17,12,,0.00,1,,216
2013-9-11,93,82,71,72,65,57,94,55,30,30.16,30.12,30.06,10,9,4,12,9,23,0.00,2,,228
2013-9-12,80,73,69,68,65,59,94,76,48,30.03,30.00,29.95,10,9,7,12,7,18,0.00,5,,273
2013-9-13,64,58,53,46,41,39,77,52,40,30.12,30.11,30.09,10,10,10,12,12,23,0.00,4,,344
2013-9-14,68,57,46,45,35,30,93,45,24,30.21,30.19,30.14,10,10,10,9,4,,0.00,0,,104
2013-9-15,75,65,57,48,43,39,72,42,27,30.16,30.11,30.04,10,10,10,12,9,,0.00,0,,203
2013-9-16,62,60,57,55,52,48,94,75,59,30.31,30.28,30.23,10,9,5,12,10,17,0.00,7,,20
2013-9-17,71,60,51,48,47,46,82,59,41,30.36,30.33,30.29,10,10,10,12,9,,0.00,0,,102
2013-9-18,80,69,60,63,53,50,88,54,39,30.17,30.14,30.07,10,10,10,6,1,,0.00,5,,150
2013-9-19,77,70,66,68,66,64,94,82,69,30.09,30.07,30.03,7,6,5,10,7,,0.00,6,Rain,198
2013-9-20,80,76,71,70,66,64,88,73,61,29.93,29.90,29.84,10,10,7,12,12,17,0.00,5,,215
2013-9-21,66,60,53,55,52,46,100,73,49,29.84,29.83,29.82,10,9,7,12,12,17,0.00,5,,310
2013-9-22,66,60,57,46,42,39,67,49,37,30.04,30.03,30.00,10,10,10,12,11,,0.00,3,,3
2013-9-23,69,60,55,46,43,41,72,49,35,30.14,30.12,30.08,10,10,10,12,10,17,0.00,0,,107
2013-9-24,73,60,50,46,46,45,87,54,36,30.10,30.04,29.97,10,10,10,12,9,,0.00,0,,95
2013-9-25,75,64,53,52,48,45,82,52,34,29.96,29.94,29.91,10,10,10,12,6,,0.00,1,,72
2013-9-26,77,62,50,55,52,48,100,66,36,30.09,30.07,30.04,10,8,0,9,3,,0.00,2,Fog,54
2013-9-27,78,66,55,50,46,41,77,48,28,30.20,30.18,30.14,10,10,10,0,0,,0.00,0,,-1
2013-9-28,80,66,55,54,50,48,88,50,32,30.19,30.16,30.08,10,10,10,12,6,17,0.00,0,,175
2013-9-29,62,60,60,63,61,59,100,98,94,30.04,30.04,30.04,3,2,2,12,5,,0.00,8,Rain,183
2013-9-30,73,65,57,63,58,55,100,81,53,30.04,30.02,29.96,10,7,0,9,3,,0.00,6,Fog,228